sensor_id;sensor_type;location;lat;lon;timestamp;P1;durP1;ratioP1;P2;durP2;ratioP2
9422;SDS011;65863;49.506;10.400;2023-08-06T00:01:18;2.90;;;1.87;;
9422;SDS011;65863;49.506;10.400;2023-08-06T00:04:05;1.80;;;1.70;;
9422;SDS011;65863;49.506;10.400;2023-08-06T00:06:48;2.30;;;2.10;;
9422;SDS011;65863;49.506;10.400;2023-08-06T00:09:33;3.77;;;1.67;;
9422;SDS011;65863;49.506;10.400;2023-08-06T00:12:17;2.23;;;2.03;;
9422;SDS011;65863;49.506;10.400;2023-08-06T00:15:00;3.20;;;1.70;;
9422;SDS011;65863;49.506;10.400;2023-08-06T00:17:44;3.23;;;2.13;;
9422;SDS011;65863;49.506;10.400;2023-08-06T00:20:28;2.67;;;1.80;;
9422;SDS011;65863;49.506;10.400;2023-08-06T00:23:12;2.27;;;1.70;;
9422;SDS011;65863;49.506;10.400;2023-08-06T00:25:56;2.93;;;1.90;;
9422;SDS011;65863;49.506;10.400;2023-08-06T00:28:40;3.30;;;2.13;;
9422;SDS011;65863;49.506;10.400;2023-08-06T00:31:25;3.80;;;2.30;;
9422;SDS011;65863;49.506;10.400;2023-08-06T00:34:09;5.60;;;2.20;;
9422;SDS011;65863;49.506;10.400;2023-08-06T00:36:53;3.00;;;2.00;;
9422;SDS011;65863;49.506;10.400;2023-08-06T00:39:37;2.83;;;2.10;;
9422;SDS011;65863;49.506;10.400;2023-08-06T00:42:22;3.63;;;2.20;;
9422;SDS011;65863;49.506;10.400;2023-08-06T00:45:06;3.10;;;2.30;;
9422;SDS011;65863;49.506;10.400;2023-08-06T00:47:51;4.40;;;2.30;;
9422;SDS011;65863;49.506;10.400;2023-08-06T00:50:35;2.60;;;2.23;;
9422;SDS011;65863;49.506;10.400;2023-08-06T00:53:19;2.63;;;2.03;;
9422;SDS011;65863;49.506;10.400;2023-08-06T00:56:03;2.30;;;2.07;;
9422;SDS011;65863;49.506;10.400;2023-08-06T00:58:47;2.77;;;2.20;;
9422;SDS011;65863;49.506;10.400;2023-08-06T01:01:32;1.90;;;1.80;;
9422;SDS011;65863;49.506;10.400;2023-08-06T01:04:16;4.33;;;2.30;;
9422;SDS011;65863;49.506;10.400;2023-08-06T01:07:09;2.00;;;1.80;;
9422;SDS011;65863;49.506;10.400;2023-08-06T01:13:47;1.73;;;1.60;;
9422;SDS011;65863;49.506;10.400;2023-08-06T01:16:36;2.47;;;2.20;;
9422;SDS011;65863;49.506;10.400;2023-08-06T01:19:21;1.87;;;1.70;;
9422;SDS011;65863;49.506;10.400;2023-08-06T01:22:05;2.93;;;1.93;;
9422;SDS011;65863;49.506;10.400;2023-08-06T01:24:50;1.93;;;1.70;;
9422;SDS011;65863;49.506;10.400;2023-08-06T01:30:32;2.10;;;1.67;;
9422;SDS011;65863;49.506;10.400;2023-08-06T01:33:22;2.70;;;1.90;;
9422;SDS011;65863;49.506;10.400;2023-08-06T01:36:07;2.73;;;2.00;;
9422;SDS011;65863;49.506;10.400;2023-08-06T01:38:52;3.37;;;1.77;;
9422;SDS011;65863;49.506;10.400;2023-08-06T01:41:37;2.33;;;2.13;;
9422;SDS011;65863;49.506;10.400;2023-08-06T01:44:21;2.10;;;1.90;;
9422;SDS011;65863;49.506;10.400;2023-08-06T01:47:05;2.77;;;2.00;;
9422;SDS011;65863;49.506;10.400;2023-08-06T01:49:50;2.73;;;2.03;;
9422;SDS011;65863;49.506;10.400;2023-08-06T01:52:35;2.80;;;2.10;;
9422;SDS011;65863;49.506;10.400;2023-08-06T01:55:19;2.43;;;2.23;;
9422;SDS011;65863;49.506;10.400;2023-08-06T01:58:03;3.27;;;2.03;;
9422;SDS011;65863;49.506;10.400;2023-08-06T02:00:47;2.67;;;1.90;;
9422;SDS011;65863;49.506;10.400;2023-08-06T02:03:31;2.10;;;1.90;;
9422;SDS011;65863;49.506;10.400;2023-08-06T02:06:15;3.73;;;2.20;;
9422;SDS011;65863;49.506;10.400;2023-08-06T02:08:59;4.30;;;1.93;;
9422;SDS011;65863;49.506;10.400;2023-08-06T02:11:44;4.17;;;1.90;;
9422;SDS011;65863;49.506;10.400;2023-08-06T02:14:28;2.73;;;2.30;;
9422;SDS011;65863;49.506;10.400;2023-08-06T02:17:12;3.83;;;1.90;;
9422;SDS011;65863;49.506;10.400;2023-08-06T02:19:56;5.07;;;2.20;;
9422;SDS011;65863;49.506;10.400;2023-08-06T02:22:40;3.13;;;1.97;;
9422;SDS011;65863;49.506;10.400;2023-08-06T02:25:26;2.23;;;2.03;;
9422;SDS011;65863;49.506;10.400;2023-08-06T02:28:10;3.40;;;2.00;;
9422;SDS011;65863;49.506;10.400;2023-08-06T02:30:56;2.40;;;2.20;;
9422;SDS011;65863;49.506;10.400;2023-08-06T02:33:40;7.00;;;2.27;;
9422;SDS011;65863;49.506;10.400;2023-08-06T02:36:24;2.53;;;2.20;;
9422;SDS011;65863;49.506;10.400;2023-08-06T02:39:08;3.83;;;2.33;;
9422;SDS011;65863;49.506;10.400;2023-08-06T02:41:52;4.70;;;2.27;;
9422;SDS011;65863;49.506;10.400;2023-08-06T02:44:36;2.43;;;2.23;;
9422;SDS011;65863;49.506;10.400;2023-08-06T02:47:22;3.43;;;2.50;;
9422;SDS011;65863;49.506;10.400;2023-08-06T02:50:06;2.47;;;2.27;;
9422;SDS011;65863;49.506;10.400;2023-08-06T02:52:50;2.43;;;2.23;;
9422;SDS011;65863;49.506;10.400;2023-08-06T02:55:34;2.60;;;2.40;;
9422;SDS011;65863;49.506;10.400;2023-08-06T02:58:24;2.77;;;2.43;;
9422;SDS011;65863;49.506;10.400;2023-08-06T03:01:20;2.50;;;2.30;;
9422;SDS011;65863;49.506;10.400;2023-08-06T03:04:11;5.03;;;2.33;;
9422;SDS011;65863;49.506;10.400;2023-08-06T03:06:59;5.60;;;2.67;;
9422;SDS011;65863;49.506;10.400;2023-08-06T03:09:50;3.13;;;2.30;;
9422;SDS011;65863;49.506;10.400;2023-08-06T03:12:34;3.93;;;2.30;;
9422;SDS011;65863;49.506;10.400;2023-08-06T03:15:20;2.40;;;2.20;;
9422;SDS011;65863;49.506;10.400;2023-08-06T03:18:05;2.57;;;2.27;;
9422;SDS011;65863;49.506;10.400;2023-08-06T03:20:50;2.30;;;2.10;;
9422;SDS011;65863;49.506;10.400;2023-08-06T03:23:35;2.57;;;2.37;;
9422;SDS011;65863;49.506;10.400;2023-08-06T03:26:19;2.43;;;2.13;;
9422;SDS011;65863;49.506;10.400;2023-08-06T03:29:04;5.13;;;2.90;;
9422;SDS011;65863;49.506;10.400;2023-08-06T03:31:51;2.13;;;1.90;;
9422;SDS011;65863;49.506;10.400;2023-08-06T03:34:35;2.40;;;2.20;;
9422;SDS011;65863;49.506;10.400;2023-08-06T03:37:20;2.20;;;2.00;;
9422;SDS011;65863;49.506;10.400;2023-08-06T03:40:04;17.33;;;2.00;;
9422;SDS011;65863;49.506;10.400;2023-08-06T03:42:50;1.87;;;1.77;;
9422;SDS011;65863;49.506;10.400;2023-08-06T03:45:34;1.83;;;1.73;;
9422;SDS011;65863;49.506;10.400;2023-08-06T03:48:19;2.77;;;2.40;;
9422;SDS011;65863;49.506;10.400;2023-08-06T03:51:03;3.40;;;2.70;;
9422;SDS011;65863;49.506;10.400;2023-08-06T03:53:47;2.67;;;2.47;;
9422;SDS011;65863;49.506;10.400;2023-08-06T03:56:32;2.60;;;2.40;;
9422;SDS011;65863;49.506;10.400;2023-08-06T03:59:17;4.13;;;2.57;;
9422;SDS011;65863;49.506;10.400;2023-08-06T04:02:03;5.80;;;3.10;;
9422;SDS011;65863;49.506;10.400;2023-08-06T04:04:47;2.63;;;2.43;;
9422;SDS011;65863;49.506;10.400;2023-08-06T04:07:32;3.60;;;2.90;;
9422;SDS011;65863;49.506;10.400;2023-08-06T04:10:16;3.93;;;3.03;;
9422;SDS011;65863;49.506;10.400;2023-08-06T04:13:00;3.30;;;3.00;;
9422;SDS011;65863;49.506;10.400;2023-08-06T04:15:44;2.87;;;2.67;;
9422;SDS011;65863;49.506;10.400;2023-08-06T04:18:28;3.73;;;2.80;;
9422;SDS011;65863;49.506;10.400;2023-08-06T04:21:13;3.60;;;3.27;;
9422;SDS011;65863;49.506;10.400;2023-08-06T04:23:57;2.70;;;2.50;;
9422;SDS011;65863;49.506;10.400;2023-08-06T04:26:41;3.70;;;2.53;;
9422;SDS011;65863;49.506;10.400;2023-08-06T04:29:26;3.13;;;2.77;;
9422;SDS011;65863;49.506;10.400;2023-08-06T04:32:10;3.00;;;2.80;;
9422;SDS011;65863;49.506;10.400;2023-08-06T04:34:58;5.63;;;3.00;;
9422;SDS011;65863;49.506;10.400;2023-08-06T04:37:42;2.97;;;2.73;;
9422;SDS011;65863;49.506;10.400;2023-08-06T04:40:28;3.37;;;3.07;;
9422;SDS011;65863;49.506;10.400;2023-08-06T04:43:12;3.10;;;2.80;;
9422;SDS011;65863;49.506;10.400;2023-08-06T04:45:56;2.93;;;2.67;;
9422;SDS011;65863;49.506;10.400;2023-08-06T04:48:40;3.43;;;3.13;;
9422;SDS011;65863;49.506;10.400;2023-08-06T04:51:24;3.17;;;2.97;;
9422;SDS011;65863;49.506;10.400;2023-08-06T04:54:09;5.07;;;3.07;;
9422;SDS011;65863;49.506;10.400;2023-08-06T04:56:53;5.30;;;3.20;;
9422;SDS011;65863;49.506;10.400;2023-08-06T04:59:38;6.50;;;3.00;;
9422;SDS011;65863;49.506;10.400;2023-08-06T05:02:22;3.37;;;3.07;;
9422;SDS011;65863;49.506;10.400;2023-08-06T05:05:07;3.63;;;3.10;;
9422;SDS011;65863;49.506;10.400;2023-08-06T05:07:53;3.50;;;2.60;;
9422;SDS011;65863;49.506;10.400;2023-08-06T05:10:38;2.87;;;2.67;;
9422;SDS011;65863;49.506;10.400;2023-08-06T05:13:26;4.13;;;3.20;;
9422;SDS011;65863;49.506;10.400;2023-08-06T05:16:10;5.73;;;2.60;;
9422;SDS011;65863;49.506;10.400;2023-08-06T05:18:54;2.90;;;2.70;;
9422;SDS011;65863;49.506;10.400;2023-08-06T05:21:38;3.83;;;2.57;;
9422;SDS011;65863;49.506;10.400;2023-08-06T05:24:22;2.60;;;2.40;;
9422;SDS011;65863;49.506;10.400;2023-08-06T05:27:06;2.50;;;2.30;;
9422;SDS011;65863;49.506;10.400;2023-08-06T05:29:54;2.87;;;2.40;;
9422;SDS011;65863;49.506;10.400;2023-08-06T05:32:41;2.43;;;2.23;;
9422;SDS011;65863;49.506;10.400;2023-08-06T05:35:25;6.63;;;2.60;;
9422;SDS011;65863;49.506;10.400;2023-08-06T05:38:09;2.83;;;2.10;;
9422;SDS011;65863;49.506;10.400;2023-08-06T05:40:54;4.83;;;2.50;;
9422;SDS011;65863;49.506;10.400;2023-08-06T05:43:38;3.10;;;2.50;;
9422;SDS011;65863;49.506;10.400;2023-08-06T05:46:22;3.57;;;2.30;;
9422;SDS011;65863;49.506;10.400;2023-08-06T05:49:07;2.93;;;2.30;;
9422;SDS011;65863;49.506;10.400;2023-08-06T05:51:51;2.87;;;2.60;;
9422;SDS011;65863;49.506;10.400;2023-08-06T05:54:36;3.33;;;2.10;;
9422;SDS011;65863;49.506;10.400;2023-08-06T05:57:21;4.77;;;2.30;;
9422;SDS011;65863;49.506;10.400;2023-08-06T06:00:05;5.87;;;2.17;;
9422;SDS011;65863;49.506;10.400;2023-08-06T06:02:56;2.20;;;2.00;;
9422;SDS011;65863;49.506;10.400;2023-08-06T06:05:40;2.50;;;2.30;;
9422;SDS011;65863;49.506;10.400;2023-08-06T06:08:24;3.57;;;2.40;;
9422;SDS011;65863;49.506;10.400;2023-08-06T06:11:08;3.33;;;2.27;;
9422;SDS011;65863;49.506;10.400;2023-08-06T06:13:52;4.13;;;2.17;;
9422;SDS011;65863;49.506;10.400;2023-08-06T06:16:36;3.10;;;2.30;;
9422;SDS011;65863;49.506;10.400;2023-08-06T06:19:21;3.40;;;2.20;;
9422;SDS011;65863;49.506;10.400;2023-08-06T06:22:05;6.60;;;2.43;;
9422;SDS011;65863;49.506;10.400;2023-08-06T06:24:49;4.97;;;2.33;;
9422;SDS011;65863;49.506;10.400;2023-08-06T06:27:33;3.47;;;2.40;;
9422;SDS011;65863;49.506;10.400;2023-08-06T06:30:17;3.10;;;2.10;;
9422;SDS011;65863;49.506;10.400;2023-08-06T06:33:01;6.63;;;2.70;;
9422;SDS011;65863;49.506;10.400;2023-08-06T06:35:45;3.43;;;1.90;;
9422;SDS011;65863;49.506;10.400;2023-08-06T06:38:29;4.77;;;1.87;;
9422;SDS011;65863;49.506;10.400;2023-08-06T06:41:13;2.70;;;2.13;;
9422;SDS011;65863;49.506;10.400;2023-08-06T06:43:57;2.87;;;2.10;;
9422;SDS011;65863;49.506;10.400;2023-08-06T06:46:42;2.50;;;1.83;;
9422;SDS011;65863;49.506;10.400;2023-08-06T06:49:25;2.80;;;2.10;;
9422;SDS011;65863;49.506;10.400;2023-08-06T06:52:10;2.97;;;1.70;;
9422;SDS011;65863;49.506;10.400;2023-08-06T06:54:54;3.33;;;1.50;;
9422;SDS011;65863;49.506;10.400;2023-08-06T06:57:39;1.57;;;1.20;;
9422;SDS011;65863;49.506;10.400;2023-08-06T07:00:22;3.80;;;1.27;;
9422;SDS011;65863;49.506;10.400;2023-08-06T07:03:06;1.63;;;1.03;;
9422;SDS011;65863;49.506;10.400;2023-08-06T07:05:50;1.47;;;1.00;;
9422;SDS011;65863;49.506;10.400;2023-08-06T07:08:34;1.50;;;0.80;;
9422;SDS011;65863;49.506;10.400;2023-08-06T07:11:18;0.63;;;0.60;;
9422;SDS011;65863;49.506;10.400;2023-08-06T07:14:02;0.73;;;0.70;;
9422;SDS011;65863;49.506;10.400;2023-08-06T07:16:46;1.47;;;0.83;;
9422;SDS011;65863;49.506;10.400;2023-08-06T07:19:30;0.77;;;0.53;;
9422;SDS011;65863;49.506;10.400;2023-08-06T07:22:14;2.43;;;0.83;;
9422;SDS011;65863;49.506;10.400;2023-08-06T07:24:58;1.67;;;0.90;;
9422;SDS011;65863;49.506;10.400;2023-08-06T07:27:42;1.23;;;0.70;;
9422;SDS011;65863;49.506;10.400;2023-08-06T07:30:27;1.53;;;0.77;;
9422;SDS011;65863;49.506;10.400;2023-08-06T07:33:11;0.70;;;0.60;;
9422;SDS011;65863;49.506;10.400;2023-08-06T07:35:55;0.90;;;0.73;;
9422;SDS011;65863;49.506;10.400;2023-08-06T07:38:39;1.17;;;0.70;;
9422;SDS011;65863;49.506;10.400;2023-08-06T07:41:24;3.00;;;0.70;;
9422;SDS011;65863;49.506;10.400;2023-08-06T07:44:09;0.90;;;0.80;;
9422;SDS011;65863;49.506;10.400;2023-08-06T07:46:52;1.50;;;0.97;;
9422;SDS011;65863;49.506;10.400;2023-08-06T07:49:37;2.37;;;0.83;;
9422;SDS011;65863;49.506;10.400;2023-08-06T07:52:21;1.93;;;0.80;;
9422;SDS011;65863;49.506;10.400;2023-08-06T07:55:05;1.67;;;0.93;;
9422;SDS011;65863;49.506;10.400;2023-08-06T07:57:50;1.67;;;1.17;;
9422;SDS011;65863;49.506;10.400;2023-08-06T08:00:34;1.63;;;0.93;;
9422;SDS011;65863;49.506;10.400;2023-08-06T08:03:18;1.00;;;0.60;;
9422;SDS011;65863;49.506;10.400;2023-08-06T08:06:03;0.80;;;0.80;;
9422;SDS011;65863;49.506;10.400;2023-08-06T08:08:47;0.63;;;0.63;;
9422;SDS011;65863;49.506;10.400;2023-08-06T08:11:31;2.37;;;0.90;;
9422;SDS011;65863;49.506;10.400;2023-08-06T08:14:16;0.73;;;0.70;;
9422;SDS011;65863;49.506;10.400;2023-08-06T08:17:00;0.90;;;0.70;;
9422;SDS011;65863;49.506;10.400;2023-08-06T08:19:45;2.73;;;0.80;;
9422;SDS011;65863;49.506;10.400;2023-08-06T08:22:29;1.53;;;0.80;;
9422;SDS011;65863;49.506;10.400;2023-08-06T08:25:13;0.93;;;0.60;;
9422;SDS011;65863;49.506;10.400;2023-08-06T08:27:59;1.67;;;0.77;;
9422;SDS011;65863;49.506;10.400;2023-08-06T08:30:43;0.40;;;0.40;;
9422;SDS011;65863;49.506;10.400;2023-08-06T08:33:27;0.67;;;0.57;;
9422;SDS011;65863;49.506;10.400;2023-08-06T08:36:11;1.37;;;0.63;;
9422;SDS011;65863;49.506;10.400;2023-08-06T08:38:55;1.03;;;0.53;;
9422;SDS011;65863;49.506;10.400;2023-08-06T08:41:40;0.60;;;0.60;;
9422;SDS011;65863;49.506;10.400;2023-08-06T08:44:25;0.67;;;0.60;;
9422;SDS011;65863;49.506;10.400;2023-08-06T08:47:13;1.07;;;0.63;;
9422;SDS011;65863;49.506;10.400;2023-08-06T08:50:00;0.97;;;0.50;;
9422;SDS011;65863;49.506;10.400;2023-08-06T08:52:45;0.67;;;0.60;;
9422;SDS011;65863;49.506;10.400;2023-08-06T08:55:29;0.57;;;0.53;;
9422;SDS011;65863;49.506;10.400;2023-08-06T08:58:13;0.53;;;0.53;;
9422;SDS011;65863;49.506;10.400;2023-08-06T09:00:58;0.80;;;0.70;;
9422;SDS011;65863;49.506;10.400;2023-08-06T09:03:43;0.83;;;0.50;;
9422;SDS011;65863;49.506;10.400;2023-08-06T09:06:28;0.67;;;0.40;;
9422;SDS011;65863;49.506;10.400;2023-08-06T09:09:25;0.83;;;0.60;;
9422;SDS011;65863;49.506;10.400;2023-08-06T09:12:12;0.40;;;0.40;;
9422;SDS011;65863;49.506;10.400;2023-08-06T09:14:58;0.73;;;0.50;;
9422;SDS011;65863;49.506;10.400;2023-08-06T09:17:42;1.20;;;0.47;;
9422;SDS011;65863;49.506;10.400;2023-08-06T09:20:26;1.07;;;0.60;;
9422;SDS011;65863;49.506;10.400;2023-08-06T09:23:10;0.63;;;0.57;;
9422;SDS011;65863;49.506;10.400;2023-08-06T09:25:54;0.50;;;0.50;;
9422;SDS011;65863;49.506;10.400;2023-08-06T09:28:39;0.30;;;0.30;;
9422;SDS011;65863;49.506;10.400;2023-08-06T09:31:32;0.30;;;0.30;;
9422;SDS011;65863;49.506;10.400;2023-08-06T09:34:18;0.20;;;0.20;;
9422;SDS011;65863;49.506;10.400;2023-08-06T09:37:03;1.37;;;0.40;;
9422;SDS011;65863;49.506;10.400;2023-08-06T09:39:48;0.40;;;0.40;;
9422;SDS011;65863;49.506;10.400;2023-08-06T09:42:32;0.20;;;0.20;;
9422;SDS011;65863;49.506;10.400;2023-08-06T09:45:20;0.53;;;0.50;;
9422;SDS011;65863;49.506;10.400;2023-08-06T09:48:08;0.30;;;0.30;;
9422;SDS011;65863;49.506;10.400;2023-08-06T09:50:53;0.20;;;0.20;;
9422;SDS011;65863;49.506;10.400;2023-08-06T09:53:39;0.20;;;0.20;;
9422;SDS011;65863;49.506;10.400;2023-08-06T09:56:24;0.43;;;0.30;;
9422;SDS011;65863;49.506;10.400;2023-08-06T09:59:10;0.20;;;0.20;;
9422;SDS011;65863;49.506;10.400;2023-08-06T10:01:58;0.40;;;0.40;;
9422;SDS011;65863;49.506;10.400;2023-08-06T10:04:44;1.67;;;0.20;;
9422;SDS011;65863;49.506;10.400;2023-08-06T10:07:29;0.27;;;0.23;;
9422;SDS011;65863;49.506;10.400;2023-08-06T10:10:14;0.33;;;0.33;;
9422;SDS011;65863;49.506;10.400;2023-08-06T10:13:03;0.20;;;0.20;;
9422;SDS011;65863;49.506;10.400;2023-08-06T10:15:50;0.97;;;0.30;;
9422;SDS011;65863;49.506;10.400;2023-08-06T10:18:36;0.30;;;0.30;;
9422;SDS011;65863;49.506;10.400;2023-08-06T10:21:25;0.20;;;0.20;;
9422;SDS011;65863;49.506;10.400;2023-08-06T10:24:12;0.33;;;0.33;;
9422;SDS011;65863;49.506;10.400;2023-08-06T10:26:58;0.23;;;0.20;;
9422;SDS011;65863;49.506;10.400;2023-08-06T10:29:42;0.10;;;0.10;;
9422;SDS011;65863;49.506;10.400;2023-08-06T10:35:40;0.23;;;0.23;;
9422;SDS011;65863;49.506;10.400;2023-08-06T10:38:28;0.33;;;0.33;;
9422;SDS011;65863;49.506;10.400;2023-08-06T10:41:23;1.50;;;0.20;;
9422;SDS011;65863;49.506;10.400;2023-08-06T10:44:12;0.20;;;0.20;;
9422;SDS011;65863;49.506;10.400;2023-08-06T10:46:56;0.20;;;0.20;;
9422;SDS011;65863;49.506;10.400;2023-08-06T10:50:00;0.33;;;0.20;;
9422;SDS011;65863;49.506;10.400;2023-08-06T10:52:45;0.23;;;0.23;;
9422;SDS011;65863;49.506;10.400;2023-08-06T10:55:30;2.03;;;0.30;;
9422;SDS011;65863;49.506;10.400;2023-08-06T10:58:15;1.50;;;0.50;;
9422;SDS011;65863;49.506;10.400;2023-08-06T11:01:00;1.37;;;0.30;;
9422;SDS011;65863;49.506;10.400;2023-08-06T11:03:44;0.30;;;0.30;;
9422;SDS011;65863;49.506;10.400;2023-08-06T11:06:30;1.60;;;0.40;;
9422;SDS011;65863;49.506;10.400;2023-08-06T11:09:13;0.27;;;0.27;;
9422;SDS011;65863;49.506;10.400;2023-08-06T11:11:58;0.43;;;0.43;;
9422;SDS011;65863;49.506;10.400;2023-08-06T11:14:42;0.43;;;0.30;;
9422;SDS011;65863;49.506;10.400;2023-08-06T11:17:30;0.30;;;0.30;;
9422;SDS011;65863;49.506;10.400;2023-08-06T11:20:16;0.20;;;0.20;;
9422;SDS011;65863;49.506;10.400;2023-08-06T11:23:01;0.67;;;0.30;;
9422;SDS011;65863;49.506;10.400;2023-08-06T11:25:46;0.30;;;0.30;;
9422;SDS011;65863;49.506;10.400;2023-08-06T11:28:30;0.10;;;0.10;;
9422;SDS011;65863;49.506;10.400;2023-08-06T11:31:21;0.47;;;0.40;;
9422;SDS011;65863;49.506;10.400;2023-08-06T11:34:06;0.20;;;0.20;;
9422;SDS011;65863;49.506;10.400;2023-08-06T11:36:49;0.20;;;0.20;;
9422;SDS011;65863;49.506;10.400;2023-08-06T11:39:37;1.90;;;0.30;;
9422;SDS011;65863;49.506;10.400;2023-08-06T11:42:22;0.40;;;0.40;;
9422;SDS011;65863;49.506;10.400;2023-08-06T11:45:07;0.53;;;0.40;;
9422;SDS011;65863;49.506;10.400;2023-08-06T11:47:53;0.83;;;0.30;;
9422;SDS011;65863;49.506;10.400;2023-08-06T11:50:37;0.70;;;0.40;;
9422;SDS011;65863;49.506;10.400;2023-08-06T11:53:27;0.30;;;0.20;;
9422;SDS011;65863;49.506;10.400;2023-08-06T11:56:13;0.50;;;0.50;;
9422;SDS011;65863;49.506;10.400;2023-08-06T11:58:56;0.20;;;0.20;;
9422;SDS011;65863;49.506;10.400;2023-08-06T12:01:40;0.33;;;0.33;;
9422;SDS011;65863;49.506;10.400;2023-08-06T12:04:24;0.50;;;0.40;;
9422;SDS011;65863;49.506;10.400;2023-08-06T12:07:08;1.27;;;0.50;;
9422;SDS011;65863;49.506;10.400;2023-08-06T12:09:53;0.50;;;0.30;;
9422;SDS011;65863;49.506;10.400;2023-08-06T12:12:37;0.37;;;0.30;;
9422;SDS011;65863;49.506;10.400;2023-08-06T12:15:22;0.63;;;0.33;;
9422;SDS011;65863;49.506;10.400;2023-08-06T12:18:07;7.53;;;0.50;;
9422;SDS011;65863;49.506;10.400;2023-08-06T12:20:51;0.20;;;0.20;;
9422;SDS011;65863;49.506;10.400;2023-08-06T12:23:35;0.30;;;0.30;;
9422;SDS011;65863;49.506;10.400;2023-08-06T12:26:20;0.20;;;0.20;;
9422;SDS011;65863;49.506;10.400;2023-08-06T12:29:04;0.43;;;0.43;;
9422;SDS011;65863;49.506;10.400;2023-08-06T12:31:51;0.23;;;0.20;;
9422;SDS011;65863;49.506;10.400;2023-08-06T12:34:35;0.30;;;0.30;;
9422;SDS011;65863;49.506;10.400;2023-08-06T12:37:19;0.20;;;0.20;;
9422;SDS011;65863;49.506;10.400;2023-08-06T12:40:03;0.67;;;0.27;;
9422;SDS011;65863;49.506;10.400;2023-08-06T12:42:47;0.50;;;0.50;;
9422;SDS011;65863;49.506;10.400;2023-08-06T12:45:32;0.20;;;0.20;;
9422;SDS011;65863;49.506;10.400;2023-08-06T12:48:17;0.57;;;0.27;;
9422;SDS011;65863;49.506;10.400;2023-08-06T12:51:00;0.20;;;0.20;;
9422;SDS011;65863;49.506;10.400;2023-08-06T12:53:47;0.10;;;0.10;;
9422;SDS011;65863;49.506;10.400;2023-08-06T12:56:32;0.20;;;0.20;;
9422;SDS011;65863;49.506;10.400;2023-08-06T12:59:16;0.30;;;0.30;;
9422;SDS011;65863;49.506;10.400;2023-08-06T13:02:01;0.30;;;0.30;;
9422;SDS011;65863;49.506;10.400;2023-08-06T13:04:47;1.10;;;0.30;;
9422;SDS011;65863;49.506;10.400;2023-08-06T13:07:32;0.33;;;0.10;;
9422;SDS011;65863;49.506;10.400;2023-08-06T13:10:16;0.37;;;0.37;;
9422;SDS011;65863;49.506;10.400;2023-08-06T13:13:01;0.20;;;0.20;;
9422;SDS011;65863;49.506;10.400;2023-08-06T13:15:45;1.23;;;0.20;;
9422;SDS011;65863;49.506;10.400;2023-08-06T13:18:29;0.20;;;0.20;;
9422;SDS011;65863;49.506;10.400;2023-08-06T13:21:14;0.57;;;0.17;;
9422;SDS011;65863;49.506;10.400;2023-08-06T13:24:01;0.20;;;0.20;;
9422;SDS011;65863;49.506;10.400;2023-08-06T13:26:46;0.30;;;0.30;;
9422;SDS011;65863;49.506;10.400;2023-08-06T13:29:31;0.30;;;0.30;;
9422;SDS011;65863;49.506;10.400;2023-08-06T13:32:15;0.30;;;0.30;;
9422;SDS011;65863;49.506;10.400;2023-08-06T13:34:59;0.20;;;0.20;;
9422;SDS011;65863;49.506;10.400;2023-08-06T13:37:43;0.30;;;0.30;;
9422;SDS011;65863;49.506;10.400;2023-08-06T13:40:27;0.33;;;0.33;;
9422;SDS011;65863;49.506;10.400;2023-08-06T13:43:12;0.37;;;0.30;;
9422;SDS011;65863;49.506;10.400;2023-08-06T13:45:56;0.37;;;0.37;;
9422;SDS011;65863;49.506;10.400;2023-08-06T13:48:41;0.53;;;0.53;;
9422;SDS011;65863;49.506;10.400;2023-08-06T13:51:26;0.40;;;0.40;;
9422;SDS011;65863;49.506;10.400;2023-08-06T13:54:10;0.30;;;0.30;;
9422;SDS011;65863;49.506;10.400;2023-08-06T13:56:57;0.70;;;0.50;;
9422;SDS011;65863;49.506;10.400;2023-08-06T13:59:42;0.60;;;0.60;;
9422;SDS011;65863;49.506;10.400;2023-08-06T14:02:27;0.53;;;0.47;;
9422;SDS011;65863;49.506;10.400;2023-08-06T14:05:12;0.70;;;0.57;;
9422;SDS011;65863;49.506;10.400;2023-08-06T14:07:56;0.30;;;0.30;;
9422;SDS011;65863;49.506;10.400;2023-08-06T14:10:41;0.90;;;0.90;;
9422;SDS011;65863;49.506;10.400;2023-08-06T14:13:25;0.77;;;0.60;;
9422;SDS011;65863;49.506;10.400;2023-08-06T14:16:09;1.30;;;0.80;;
9422;SDS011;65863;49.506;10.400;2023-08-06T14:18:53;0.60;;;0.47;;
9422;SDS011;65863;49.506;10.400;2023-08-06T14:21:37;0.43;;;0.43;;
9422;SDS011;65863;49.506;10.400;2023-08-06T14:24:22;0.70;;;0.50;;
9422;SDS011;65863;49.506;10.400;2023-08-06T14:27:06;0.87;;;0.73;;
9422;SDS011;65863;49.506;10.400;2023-08-06T14:29:50;0.83;;;0.70;;
9422;SDS011;65863;49.506;10.400;2023-08-06T14:32:35;1.67;;;0.70;;
9422;SDS011;65863;49.506;10.400;2023-08-06T14:35:19;0.73;;;0.73;;
9422;SDS011;65863;49.506;10.400;2023-08-06T14:38:03;0.80;;;0.80;;
9422;SDS011;65863;49.506;10.400;2023-08-06T14:40:50;0.60;;;0.60;;
9422;SDS011;65863;49.506;10.400;2023-08-06T14:43:34;1.10;;;0.60;;
9422;SDS011;65863;49.506;10.400;2023-08-06T14:46:18;0.73;;;0.70;;
9422;SDS011;65863;49.506;10.400;2023-08-06T14:49:02;0.60;;;0.60;;
9422;SDS011;65863;49.506;10.400;2023-08-06T14:51:46;0.70;;;0.70;;
9422;SDS011;65863;49.506;10.400;2023-08-06T14:54:31;1.03;;;0.70;;
9422;SDS011;65863;49.506;10.400;2023-08-06T14:57:15;1.20;;;0.67;;
9422;SDS011;65863;49.506;10.400;2023-08-06T14:59:59;6.60;;;0.50;;
9422;SDS011;65863;49.506;10.400;2023-08-06T15:02:44;0.60;;;0.60;;
9422;SDS011;65863;49.506;10.400;2023-08-06T15:05:28;0.97;;;0.50;;
9422;SDS011;65863;49.506;10.400;2023-08-06T15:08:12;0.80;;;0.80;;
9422;SDS011;65863;49.506;10.400;2023-08-06T15:10:56;0.67;;;0.60;;
9422;SDS011;65863;49.506;10.400;2023-08-06T15:13:40;0.70;;;0.70;;
9422;SDS011;65863;49.506;10.400;2023-08-06T15:16:25;0.60;;;0.60;;
9422;SDS011;65863;49.506;10.400;2023-08-06T15:19:12;0.70;;;0.70;;
9422;SDS011;65863;49.506;10.400;2023-08-06T15:21:57;0.90;;;0.90;;
9422;SDS011;65863;49.506;10.400;2023-08-06T15:24:44;0.70;;;0.70;;
9422;SDS011;65863;49.506;10.400;2023-08-06T15:27:29;0.90;;;0.90;;
9422;SDS011;65863;49.506;10.400;2023-08-06T15:30:13;0.80;;;0.80;;
9422;SDS011;65863;49.506;10.400;2023-08-06T15:32:57;1.80;;;0.60;;
9422;SDS011;65863;49.506;10.400;2023-08-06T15:35:42;2.50;;;0.67;;
9422;SDS011;65863;49.506;10.400;2023-08-06T15:38:26;0.60;;;0.60;;
9422;SDS011;65863;49.506;10.400;2023-08-06T15:41:10;1.07;;;0.60;;
9422;SDS011;65863;49.506;10.400;2023-08-06T15:43:54;3.53;;;0.80;;
9422;SDS011;65863;49.506;10.400;2023-08-06T15:46:38;0.87;;;0.77;;
9422;SDS011;65863;49.506;10.400;2023-08-06T15:49:21;1.03;;;0.90;;
9422;SDS011;65863;49.506;10.400;2023-08-06T15:52:05;0.67;;;0.67;;
9422;SDS011;65863;49.506;10.400;2023-08-06T15:54:50;2.03;;;0.63;;
9422;SDS011;65863;49.506;10.400;2023-08-06T15:57:34;0.77;;;0.70;;
9422;SDS011;65863;49.506;10.400;2023-08-06T16:00:19;0.60;;;0.60;;
9422;SDS011;65863;49.506;10.400;2023-08-06T16:03:03;0.83;;;0.60;;
9422;SDS011;65863;49.506;10.400;2023-08-06T16:05:47;0.30;;;0.30;;
9422;SDS011;65863;49.506;10.400;2023-08-06T16:08:31;1.20;;;0.50;;
9422;SDS011;65863;49.506;10.400;2023-08-06T16:11:15;0.57;;;0.57;;
9422;SDS011;65863;49.506;10.400;2023-08-06T16:13:58;1.40;;;0.80;;
9422;SDS011;65863;49.506;10.400;2023-08-06T16:16:43;1.73;;;1.10;;
9422;SDS011;65863;49.506;10.400;2023-08-06T16:19:27;0.60;;;0.60;;
9422;SDS011;65863;49.506;10.400;2023-08-06T16:22:11;2.87;;;1.63;;
9422;SDS011;65863;49.506;10.400;2023-08-06T16:24:55;6.00;;;0.93;;
9422;SDS011;65863;49.506;10.400;2023-08-06T16:27:39;0.50;;;0.50;;
9422;SDS011;65863;49.506;10.400;2023-08-06T16:30:23;2.60;;;2.00;;
9422;SDS011;65863;49.506;10.400;2023-08-06T16:33:07;0.93;;;0.90;;
9422;SDS011;65863;49.506;10.400;2023-08-06T16:35:52;1.77;;;0.77;;
9422;SDS011;65863;49.506;10.400;2023-08-06T16:38:35;0.97;;;0.47;;
9422;SDS011;65863;49.506;10.400;2023-08-06T16:41:20;0.63;;;0.63;;
9422;SDS011;65863;49.506;10.400;2023-08-06T16:44:04;0.67;;;0.67;;